TOCTM weather

Club Volo Ultraleggeri del Canavese
Castellamonte (TO), Piedmont, Italy

Public forecast

Using degrees Celsius for public forecast. Weather courtesy of forecast.io.

METAR (pilot weather report)

Closest report is Turin Airport, 9.9 nm (18.4 km) SSW. Retrieved 2019/07/18 23:20 UTC (8 minutes ago):

LIMF 182320Z 11002KT CAVOK 20/17 Q1015

TAF (pilot weather forecast)

Closest forecast is Turin Airport, 9.9 nm (18.4 km) SSW. Retrieved 2019/07/18 18:00 UTC (5 hours ago):

TAF LIMF 181700Z 1818/1918 VRB05KT CAVOK PROB30 TEMPO 1913/1917 TSRA